sensor_id;sensor_type;location;lat;lon;timestamp;temperature;humidity
22827;DHT22;11580;52.562;13.418;2022-07-22T00:02:17;24.80;39.10
22827;DHT22;11580;52.562;13.418;2022-07-22T00:04:44;24.70;39.30
22827;DHT22;11580;52.562;13.418;2022-07-22T00:07:11;24.70;39.10
22827;DHT22;11580;52.562;13.418;2022-07-22T00:09:39;24.70;39.10
22827;DHT22;11580;52.562;13.418;2022-07-22T00:12:06;24.70;39.20
22827;DHT22;11580;52.562;13.418;2022-07-22T00:14:34;24.70;39.20
22827;DHT22;11580;52.562;13.418;2022-07-22T00:17:01;24.70;39.10
22827;DHT22;11580;52.562;13.418;2022-07-22T00:19:30;24.70;39.10
22827;DHT22;11580;52.562;13.418;2022-07-22T00:21:57;24.70;39.10
22827;DHT22;11580;52.562;13.418;2022-07-22T00:24:24;24.70;38.80
22827;DHT22;11580;52.562;13.418;2022-07-22T00:26:51;24.70;38.70
22827;DHT22;11580;52.562;13.418;2022-07-22T00:29:19;24.80;38.70
22827;DHT22;11580;52.562;13.418;2022-07-22T00:31:46;24.80;38.70
22827;DHT22;11580;52.562;13.418;2022-07-22T00:34:14;24.80;38.60
22827;DHT22;11580;52.562;13.418;2022-07-22T00:36:42;24.80;38.50
22827;DHT22;11580;52.562;13.418;2022-07-22T00:39:09;24.90;38.50
22827;DHT22;11580;52.562;13.418;2022-07-22T00:41:37;24.80;38.30
22827;DHT22;11580;52.562;13.418;2022-07-22T00:44:06;24.90;38.20
22827;DHT22;11580;52.562;13.418;2022-07-22T00:46:36;24.90;38.20
22827;DHT22;11580;52.562;13.418;2022-07-22T00:49:05;24.90;38.00
22827;DHT22;11580;52.562;13.418;2022-07-22T00:51:34;24.90;37.90
22827;DHT22;11580;52.562;13.418;2022-07-22T00:54:07;24.90;37.80
22827;DHT22;11580;52.562;13.418;2022-07-22T00:56:35;25.00;37.80
22827;DHT22;11580;52.562;13.418;2022-07-22T00:59:06;25.00;37.70
22827;DHT22;11580;52.562;13.418;2022-07-22T01:01:35;25.00;37.80
22827;DHT22;11580;52.562;13.418;2022-07-22T01:04:02;25.00;38.30
22827;DHT22;11580;52.562;13.418;2022-07-22T01:06:30;25.00;37.50
22827;DHT22;11580;52.562;13.418;2022-07-22T01:08:58;25.00;37.40
22827;DHT22;11580;52.562;13.418;2022-07-22T01:11:27;25.00;37.40
22827;DHT22;11580;52.562;13.418;2022-07-22T01:13:55;25.00;37.40
22827;DHT22;11580;52.562;13.418;2022-07-22T01:16:24;25.00;37.30
22827;DHT22;11580;52.562;13.418;2022-07-22T01:18:51;25.00;37.20
22827;DHT22;11580;52.562;13.418;2022-07-22T01:21:20;24.90;37.10
22827;DHT22;11580;52.562;13.418;2022-07-22T01:23:48;24.90;37.90
22827;DHT22;11580;52.562;13.418;2022-07-22T01:26:16;24.90;37.00
22827;DHT22;11580;52.562;13.418;2022-07-22T01:28:44;24.90;37.00
22827;DHT22;11580;52.562;13.418;2022-07-22T01:31:12;24.90;37.00
22827;DHT22;11580;52.562;13.418;2022-07-22T01:33:40;24.90;37.10
22827;DHT22;11580;52.562;13.418;2022-07-22T01:36:08;24.80;37.00
22827;DHT22;11580;52.562;13.418;2022-07-22T01:38:37;24.80;37.10
22827;DHT22;11580;52.562;13.418;2022-07-22T01:41:05;24.80;37.20
22827;DHT22;11580;52.562;13.418;2022-07-22T01:43:32;24.80;37.20
22827;DHT22;11580;52.562;13.418;2022-07-22T01:46:00;24.80;37.20
22827;DHT22;11580;52.562;13.418;2022-07-22T01:48:27;24.70;37.20
22827;DHT22;11580;52.562;13.418;2022-07-22T01:50:55;24.70;37.20
22827;DHT22;11580;52.562;13.418;2022-07-22T01:53:23;24.70;37.20
22827;DHT22;11580;52.562;13.418;2022-07-22T01:55:52;24.70;37.20
22827;DHT22;11580;52.562;13.418;2022-07-22T01:58:20;24.70;37.40
22827;DHT22;11580;52.562;13.418;2022-07-22T02:00:47;24.60;37.30
22827;DHT22;11580;52.562;13.418;2022-07-22T02:03:15;24.60;37.30
22827;DHT22;11580;52.562;13.418;2022-07-22T02:05:43;24.60;37.40
22827;DHT22;11580;52.562;13.418;2022-07-22T02:08:24;24.50;37.40
22827;DHT22;11580;52.562;13.418;2022-07-22T02:11:11;24.50;37.50
22827;DHT22;11580;52.562;13.418;2022-07-22T02:13:59;24.50;37.70
22827;DHT22;11580;52.562;13.418;2022-07-22T02:16:28;24.40;37.50
22827;DHT22;11580;52.562;13.418;2022-07-22T02:18:56;24.40;37.60
22827;DHT22;11580;52.562;13.418;2022-07-22T02:21:23;24.40;37.70
22827;DHT22;11580;52.562;13.418;2022-07-22T02:23:56;24.40;37.80
22827;DHT22;11580;52.562;13.418;2022-07-22T02:26:25;24.30;37.80
22827;DHT22;11580;52.562;13.418;2022-07-22T02:28:52;24.30;38.80
22827;DHT22;11580;52.562;13.418;2022-07-22T02:31:21;24.30;38.00
22827;DHT22;11580;52.562;13.418;2022-07-22T02:33:49;24.30;38.00
22827;DHT22;11580;52.562;13.418;2022-07-22T02:36:17;24.20;38.00
22827;DHT22;11580;52.562;13.418;2022-07-22T02:38:44;24.20;38.10
22827;DHT22;11580;52.562;13.418;2022-07-22T02:41:11;24.10;38.20
22827;DHT22;11580;52.562;13.418;2022-07-22T02:43:48;24.10;38.30
22827;DHT22;11580;52.562;13.418;2022-07-22T02:46:15;24.10;38.60
22827;DHT22;11580;52.562;13.418;2022-07-22T02:48:43;24.00;38.40
22827;DHT22;11580;52.562;13.418;2022-07-22T02:51:13;24.00;38.80
22827;DHT22;11580;52.562;13.418;2022-07-22T02:53:40;24.00;38.70
22827;DHT22;11580;52.562;13.418;2022-07-22T02:56:07;23.90;38.70
22827;DHT22;11580;52.562;13.418;2022-07-22T02:58:35;23.90;39.00
22827;DHT22;11580;52.562;13.418;2022-07-22T03:01:03;23.90;39.00
22827;DHT22;11580;52.562;13.418;2022-07-22T03:03:38;23.80;39.20
22827;DHT22;11580;52.562;13.418;2022-07-22T03:06:06;23.80;39.00
22827;DHT22;11580;52.562;13.418;2022-07-22T03:08:45;23.80;39.20
22827;DHT22;11580;52.562;13.418;2022-07-22T03:11:14;23.80;39.20
22827;DHT22;11580;52.562;13.418;2022-07-22T03:13:41;23.70;39.30
22827;DHT22;11580;52.562;13.418;2022-07-22T03:16:11;23.70;39.30
22827;DHT22;11580;52.562;13.418;2022-07-22T03:18:38;23.70;39.80
22827;DHT22;11580;52.562;13.418;2022-07-22T03:21:05;23.70;39.50
22827;DHT22;11580;52.562;13.418;2022-07-22T03:23:33;23.60;39.60
22827;DHT22;11580;52.562;13.418;2022-07-22T03:26:00;23.60;39.70
22827;DHT22;11580;52.562;13.418;2022-07-22T03:28:28;23.60;39.70
22827;DHT22;11580;52.562;13.418;2022-07-22T03:30:55;23.50;39.60
22827;DHT22;11580;52.562;13.418;2022-07-22T03:33:25;23.50;40.30
22827;DHT22;11580;52.562;13.418;2022-07-22T03:35:53;23.50;39.60
22827;DHT22;11580;52.562;13.418;2022-07-22T03:38:20;23.40;39.50
22827;DHT22;11580;52.562;13.418;2022-07-22T03:40:48;23.40;39.50
22827;DHT22;11580;52.562;13.418;2022-07-22T03:43:15;23.40;39.60
22827;DHT22;11580;52.562;13.418;2022-07-22T03:45:42;23.40;39.70
22827;DHT22;11580;52.562;13.418;2022-07-22T03:48:11;23.40;40.00
22827;DHT22;11580;52.562;13.418;2022-07-22T03:50:40;23.40;40.20
22827;DHT22;11580;52.562;13.418;2022-07-22T03:53:08;23.40;40.60
22827;DHT22;11580;52.562;13.418;2022-07-22T03:55:38;23.40;40.40
22827;DHT22;11580;52.562;13.418;2022-07-22T03:58:06;23.40;40.40
22827;DHT22;11580;52.562;13.418;2022-07-22T04:00:33;23.50;40.50
22827;DHT22;11580;52.562;13.418;2022-07-22T04:03:03;23.50;40.40
22827;DHT22;11580;52.562;13.418;2022-07-22T04:05:50;23.50;40.30
22827;DHT22;11580;52.562;13.418;2022-07-22T04:08:32;23.60;40.50
22827;DHT22;11580;52.562;13.418;2022-07-22T04:11:01;23.60;40.20
22827;DHT22;11580;52.562;13.418;2022-07-22T04:13:29;23.70;40.20
22827;DHT22;11580;52.562;13.418;2022-07-22T04:15:58;23.70;40.20
22827;DHT22;11580;52.562;13.418;2022-07-22T04:18:29;23.80;40.20
22827;DHT22;11580;52.562;13.418;2022-07-22T04:20:58;23.80;41.10
22827;DHT22;11580;52.562;13.418;2022-07-22T04:23:32;23.90;40.20
22827;DHT22;11580;52.562;13.418;2022-07-22T04:26:20;23.90;40.00
22827;DHT22;11580;52.562;13.418;2022-07-22T04:28:47;24.00;40.00
22827;DHT22;11580;52.562;13.418;2022-07-22T04:31:15;24.00;40.00
22827;DHT22;11580;52.562;13.418;2022-07-22T04:33:42;24.10;40.10
22827;DHT22;11580;52.562;13.418;2022-07-22T04:36:11;24.10;40.10
22827;DHT22;11580;52.562;13.418;2022-07-22T04:38:38;24.20;40.20
22827;DHT22;11580;52.562;13.418;2022-07-22T04:41:08;24.20;40.20
22827;DHT22;11580;52.562;13.418;2022-07-22T04:43:36;24.20;40.20
22827;DHT22;11580;52.562;13.418;2022-07-22T04:46:05;24.30;40.10
22827;DHT22;11580;52.562;13.418;2022-07-22T04:48:34;24.30;40.00
22827;DHT22;11580;52.562;13.418;2022-07-22T04:51:02;24.30;39.90
22827;DHT22;11580;52.562;13.418;2022-07-22T04:53:32;24.40;39.90
22827;DHT22;11580;52.562;13.418;2022-07-22T04:56:00;24.40;39.90
22827;DHT22;11580;52.562;13.418;2022-07-22T04:58:28;24.50;39.70
22827;DHT22;11580;52.562;13.418;2022-07-22T05:00:55;24.50;39.60
22827;DHT22;11580;52.562;13.418;2022-07-22T05:03:22;24.60;39.50
22827;DHT22;11580;52.562;13.418;2022-07-22T05:05:52;24.60;39.40
22827;DHT22;11580;52.562;13.418;2022-07-22T05:08:27;24.70;39.30
22827;DHT22;11580;52.562;13.418;2022-07-22T05:10:55;24.70;39.30
22827;DHT22;11580;52.562;13.418;2022-07-22T05:13:23;24.80;39.40
22827;DHT22;11580;52.562;13.418;2022-07-22T05:15:51;24.80;39.90
22827;DHT22;11580;52.562;13.418;2022-07-22T05:18:18;24.90;39.10
22827;DHT22;11580;52.562;13.418;2022-07-22T05:20:45;24.90;39.50
22827;DHT22;11580;52.562;13.418;2022-07-22T05:23:12;25.00;38.70
22827;DHT22;11580;52.562;13.418;2022-07-22T05:25:40;25.00;38.60
22827;DHT22;11580;52.562;13.418;2022-07-22T05:28:08;25.00;38.60
22827;DHT22;11580;52.562;13.418;2022-07-22T05:30:40;25.00;38.60
22827;DHT22;11580;52.562;13.418;2022-07-22T05:33:07;25.10;38.50
22827;DHT22;11580;52.562;13.418;2022-07-22T05:36:01;25.10;38.40
22827;DHT22;11580;52.562;13.418;2022-07-22T05:38:35;25.20;38.30
22827;DHT22;11580;52.562;13.418;2022-07-22T05:41:03;25.30;38.30
22827;DHT22;11580;52.562;13.418;2022-07-22T05:43:32;25.30;38.10
22827;DHT22;11580;52.562;13.418;2022-07-22T05:46:01;25.40;38.00
22827;DHT22;11580;52.562;13.418;2022-07-22T05:48:28;25.50;38.00
22827;DHT22;11580;52.562;13.418;2022-07-22T05:50:56;25.60;38.60
22827;DHT22;11580;52.562;13.418;2022-07-22T05:53:23;25.70;37.90
22827;DHT22;11580;52.562;13.418;2022-07-22T05:55:50;25.80;37.80
22827;DHT22;11580;52.562;13.418;2022-07-22T05:58:18;25.90;37.50
22827;DHT22;11580;52.562;13.418;2022-07-22T06:00:46;26.00;37.40
22827;DHT22;11580;52.562;13.418;2022-07-22T06:03:14;26.10;37.20
22827;DHT22;11580;52.562;13.418;2022-07-22T06:05:42;26.30;37.30
22827;DHT22;11580;52.562;13.418;2022-07-22T06:08:10;26.40;37.20
22827;DHT22;11580;52.562;13.418;2022-07-22T06:10:42;26.60;37.00
22827;DHT22;11580;52.562;13.418;2022-07-22T06:13:09;26.80;36.80
22827;DHT22;11580;52.562;13.418;2022-07-22T06:15:39;26.90;36.30
22827;DHT22;11580;52.562;13.418;2022-07-22T06:18:08;27.00;35.90
22827;DHT22;11580;52.562;13.418;2022-07-22T06:20:35;27.20;35.60
22827;DHT22;11580;52.562;13.418;2022-07-22T06:23:03;27.30;35.40
22827;DHT22;11580;52.562;13.418;2022-07-22T06:25:31;27.50;35.20
22827;DHT22;11580;52.562;13.418;2022-07-22T06:27:59;27.60;35.00
22827;DHT22;11580;52.562;13.418;2022-07-22T06:30:27;27.60;34.70
22827;DHT22;11580;52.562;13.418;2022-07-22T06:32:54;27.80;34.70
22827;DHT22;11580;52.562;13.418;2022-07-22T06:35:23;27.80;34.30
22827;DHT22;11580;52.562;13.418;2022-07-22T06:37:51;27.90;34.00
22827;DHT22;11580;52.562;13.418;2022-07-22T06:40:20;28.00;34.60
22827;DHT22;11580;52.562;13.418;2022-07-22T06:43:13;28.10;33.60
22827;DHT22;11580;52.562;13.418;2022-07-22T06:46:10;28.20;33.60
22827;DHT22;11580;52.562;13.418;2022-07-22T06:48:49;28.30;33.50
22827;DHT22;11580;52.562;13.418;2022-07-22T06:51:17;28.40;33.50
22827;DHT22;11580;52.562;13.418;2022-07-22T06:53:45;28.40;33.10
22827;DHT22;11580;52.562;13.418;2022-07-22T06:56:12;28.50;33.30
22827;DHT22;11580;52.562;13.418;2022-07-22T06:58:40;28.60;33.10
22827;DHT22;11580;52.562;13.418;2022-07-22T07:01:09;28.70;32.70
22827;DHT22;11580;52.562;13.418;2022-07-22T07:03:48;28.80;32.30
22827;DHT22;11580;52.562;13.418;2022-07-22T07:06:17;28.90;32.10
22827;DHT22;11580;52.562;13.418;2022-07-22T07:09:02;29.00;31.80
22827;DHT22;11580;52.562;13.418;2022-07-22T07:11:31;29.00;31.60
22827;DHT22;11580;52.562;13.418;2022-07-22T07:14:00;29.00;31.60
22827;DHT22;11580;52.562;13.418;2022-07-22T07:16:27;29.10;31.50
22827;DHT22;11580;52.562;13.418;2022-07-22T07:18:55;29.10;31.50
22827;DHT22;11580;52.562;13.418;2022-07-22T07:21:24;29.20;31.70
22827;DHT22;11580;52.562;13.418;2022-07-22T07:23:51;29.30;31.40
22827;DHT22;11580;52.562;13.418;2022-07-22T07:26:19;29.40;31.40
22827;DHT22;11580;52.562;13.418;2022-07-22T07:28:46;29.50;31.10
22827;DHT22;11580;52.562;13.418;2022-07-22T07:31:19;29.60;31.20
22827;DHT22;11580;52.562;13.418;2022-07-22T07:33:50;29.70;31.30
22827;DHT22;11580;52.562;13.418;2022-07-22T07:36:17;29.80;31.30
22827;DHT22;11580;52.562;13.418;2022-07-22T07:38:50;29.90;30.70
22827;DHT22;11580;52.562;13.418;2022-07-22T07:41:17;30.00;30.40
22827;DHT22;11580;52.562;13.418;2022-07-22T07:43:48;30.10;30.40
22827;DHT22;11580;52.562;13.418;2022-07-22T07:46:16;30.20;30.40
22827;DHT22;11580;52.562;13.418;2022-07-22T07:48:44;30.30;30.30
22827;DHT22;11580;52.562;13.418;2022-07-22T07:51:12;30.40;30.00
22827;DHT22;11580;52.562;13.418;2022-07-22T07:53:40;30.50;29.90
22827;DHT22;11580;52.562;13.418;2022-07-22T07:56:08;30.50;29.60
22827;DHT22;11580;52.562;13.418;2022-07-22T07:58:36;30.60;29.40
22827;DHT22;11580;52.562;13.418;2022-07-22T08:01:04;30.60;29.30
22827;DHT22;11580;52.562;13.418;2022-07-22T08:03:31;30.60;29.20
22827;DHT22;11580;52.562;13.418;2022-07-22T08:05:59;30.60;29.20
22827;DHT22;11580;52.562;13.418;2022-07-22T08:08:28;30.60;29.20
22827;DHT22;11580;52.562;13.418;2022-07-22T08:10:59;30.60;29.10
22827;DHT22;11580;52.562;13.418;2022-07-22T08:13:34;30.70;29.10
22827;DHT22;11580;52.562;13.418;2022-07-22T08:16:19;30.80;28.90
22827;DHT22;11580;52.562;13.418;2022-07-22T08:18:46;30.80;28.80
22827;DHT22;11580;52.562;13.418;2022-07-22T08:21:14;30.90;29.20
22827;DHT22;11580;52.562;13.418;2022-07-22T08:23:55;31.00;28.50
22827;DHT22;11580;52.562;13.418;2022-07-22T08:26:23;31.00;28.40
22827;DHT22;11580;52.562;13.418;2022-07-22T08:28:53;31.00;28.30
22827;DHT22;11580;52.562;13.418;2022-07-22T08:31:20;31.10;28.20
22827;DHT22;11580;52.562;13.418;2022-07-22T08:33:48;31.10;27.80
22827;DHT22;11580;52.562;13.418;2022-07-22T08:36:16;31.10;28.30
22827;DHT22;11580;52.562;13.418;2022-07-22T08:38:43;31.10;28.20
22827;DHT22;11580;52.562;13.418;2022-07-22T08:41:11;31.20;27.60
22827;DHT22;11580;52.562;13.418;2022-07-22T08:43:40;31.20;27.40
22827;DHT22;11580;52.562;13.418;2022-07-22T08:46:10;31.10;27.10
22827;DHT22;11580;52.562;13.418;2022-07-22T08:49:01;31.10;27.00
22827;DHT22;11580;52.562;13.418;2022-07-22T08:51:51;30.90;27.10
22827;DHT22;11580;52.562;13.418;2022-07-22T08:54:24;30.80;27.20
22827;DHT22;11580;52.562;13.418;2022-07-22T08:56:53;30.70;27.30
22827;DHT22;11580;52.562;13.418;2022-07-22T08:59:24;30.60;27.40
22827;DHT22;11580;52.562;13.418;2022-07-22T09:02:04;30.40;27.60
22827;DHT22;11580;52.562;13.418;2022-07-22T09:04:51;30.30;27.60
22827;DHT22;11580;52.562;13.418;2022-07-22T09:07:25;30.30;27.80
22827;DHT22;11580;52.562;13.418;2022-07-22T09:10:03;30.30;27.90
22827;DHT22;11580;52.562;13.418;2022-07-22T09:12:53;30.30;28.20
22827;DHT22;11580;52.562;13.418;2022-07-22T09:15:47;30.30;28.10
22827;DHT22;11580;52.562;13.418;2022-07-22T09:18:47;30.40;27.80
22827;DHT22;11580;52.562;13.418;2022-07-22T09:21:35;30.40;27.70
22827;DHT22;11580;52.562;13.418;2022-07-22T09:24:27;30.30;27.70
22827;DHT22;11580;52.562;13.418;2022-07-22T09:27:03;30.20;27.70
22827;DHT22;11580;52.562;13.418;2022-07-22T09:29:50;30.00;27.80
22827;DHT22;11580;52.562;13.418;2022-07-22T09:32:21;29.80;28.00
22827;DHT22;11580;52.562;13.418;2022-07-22T09:35:01;29.60;28.10
22827;DHT22;11580;52.562;13.418;2022-07-22T09:37:34;29.40;28.40
22827;DHT22;11580;52.562;13.418;2022-07-22T09:40:13;29.20;28.60
22827;DHT22;11580;52.562;13.418;2022-07-22T09:42:46;29.00;29.10
22827;DHT22;11580;52.562;13.418;2022-07-22T09:45:17;28.90;29.40
22827;DHT22;11580;52.562;13.418;2022-07-22T09:47:45;28.70;29.60
22827;DHT22;11580;52.562;13.418;2022-07-22T09:50:29;28.60;29.90
22827;DHT22;11580;52.562;13.418;2022-07-22T09:53:13;28.60;30.20
22827;DHT22;11580;52.562;13.418;2022-07-22T09:55:47;28.60;30.20
22827;DHT22;11580;52.562;13.418;2022-07-22T09:58:15;28.70;30.40
22827;DHT22;11580;52.562;13.418;2022-07-22T10:00:43;28.80;30.30
22827;DHT22;11580;52.562;13.418;2022-07-22T10:03:18;29.00;30.10
22827;DHT22;11580;52.562;13.418;2022-07-22T10:05:52;29.20;30.00
22827;DHT22;11580;52.562;13.418;2022-07-22T10:08:21;29.40;29.70
22827;DHT22;11580;52.562;13.418;2022-07-22T10:10:50;29.60;29.30
22827;DHT22;11580;52.562;13.418;2022-07-22T10:13:19;29.70;28.90
22827;DHT22;11580;52.562;13.418;2022-07-22T10:15:47;29.90;28.60
22827;DHT22;11580;52.562;13.418;2022-07-22T10:18:16;29.90;29.00
22827;DHT22;11580;52.562;13.418;2022-07-22T10:20:47;30.00;28.60
22827;DHT22;11580;52.562;13.418;2022-07-22T10:23:16;29.90;28.50
22827;DHT22;11580;52.562;13.418;2022-07-22T10:25:51;29.80;28.90
22827;DHT22;11580;52.562;13.418;2022-07-22T10:28:22;29.80;28.50
22827;DHT22;11580;52.562;13.418;2022-07-22T10:30:51;29.70;28.60
22827;DHT22;11580;52.562;13.418;2022-07-22T10:33:20;29.60;28.70
22827;DHT22;11580;52.562;13.418;2022-07-22T10:35:56;29.60;28.80
22827;DHT22;11580;52.562;13.418;2022-07-22T10:38:27;29.70;29.00
22827;DHT22;11580;52.562;13.418;2022-07-22T10:40:56;29.70;29.00
22827;DHT22;11580;52.562;13.418;2022-07-22T10:43:26;29.80;29.10
22827;DHT22;11580;52.562;13.418;2022-07-22T10:45:55;29.90;29.60
22827;DHT22;11580;52.562;13.418;2022-07-22T10:51:14;30.00;28.70
22827;DHT22;11580;52.562;13.418;2022-07-22T10:53:46;30.10;28.70
22827;DHT22;11580;52.562;13.418;2022-07-22T10:56:24;30.30;28.70
22827;DHT22;11580;52.562;13.418;2022-07-22T10:59:01;30.30;28.30
22827;DHT22;11580;52.562;13.418;2022-07-22T11:01:36;30.30;28.00
22827;DHT22;11580;52.562;13.418;2022-07-22T11:04:14;30.30;28.10
22827;DHT22;11580;52.562;13.418;2022-07-22T11:06:43;30.30;28.10
22827;DHT22;11580;52.562;13.418;2022-07-22T11:09:15;30.20;28.20
22827;DHT22;11580;52.562;13.418;2022-07-22T11:11:45;30.10;28.20
22827;DHT22;11580;52.562;13.418;2022-07-22T11:14:16;30.00;28.10
22827;DHT22;11580;52.562;13.418;2022-07-22T11:16:46;29.90;28.10
22827;DHT22;11580;52.562;13.418;2022-07-22T11:19:19;29.80;28.20
22827;DHT22;11580;52.562;13.418;2022-07-22T11:21:51;29.80;28.60
22827;DHT22;11580;52.562;13.418;2022-07-22T11:24:21;29.80;29.30
22827;DHT22;11580;52.562;13.418;2022-07-22T11:26:51;29.70;28.70
22827;DHT22;11580;52.562;13.418;2022-07-22T11:29:25;29.50;28.60
22827;DHT22;11580;52.562;13.418;2022-07-22T11:31:54;29.50;28.70
22827;DHT22;11580;52.562;13.418;2022-07-22T11:34:23;29.40;28.90
22827;DHT22;11580;52.562;13.418;2022-07-22T11:36:53;29.40;29.10
22827;DHT22;11580;52.562;13.418;2022-07-22T11:39:24;29.40;29.10
22827;DHT22;11580;52.562;13.418;2022-07-22T11:41:54;29.50;29.10
22827;DHT22;11580;52.562;13.418;2022-07-22T11:44:25;29.50;29.00
22827;DHT22;11580;52.562;13.418;2022-07-22T11:46:53;29.60;29.10
22827;DHT22;11580;52.562;13.418;2022-07-22T11:49:25;29.70;28.90
22827;DHT22;11580;52.562;13.418;2022-07-22T11:51:53;29.80;28.70
22827;DHT22;11580;52.562;13.418;2022-07-22T11:54:22;29.90;28.50
22827;DHT22;11580;52.562;13.418;2022-07-22T11:56:50;30.00;28.30
22827;DHT22;11580;52.562;13.418;2022-07-22T11:59:18;30.10;28.20
22827;DHT22;11580;52.562;13.418;2022-07-22T12:01:47;30.20;28.10
22827;DHT22;11580;52.562;13.418;2022-07-22T12:04:16;30.30;27.90
22827;DHT22;11580;52.562;13.418;2022-07-22T12:06:45;30.40;28.40
22827;DHT22;11580;52.562;13.418;2022-07-22T12:09:16;30.50;27.70
22827;DHT22;11580;52.562;13.418;2022-07-22T12:11:50;30.60;27.40
22827;DHT22;11580;52.562;13.418;2022-07-22T12:14:21;30.70;27.10
22827;DHT22;11580;52.562;13.418;2022-07-22T12:16:55;30.80;27.10
22827;DHT22;11580;52.562;13.418;2022-07-22T12:19:25;30.80;26.90
22827;DHT22;11580;52.562;13.418;2022-07-22T12:21:57;30.80;26.90
22827;DHT22;11580;52.562;13.418;2022-07-22T12:24:26;30.80;27.10
22827;DHT22;11580;52.562;13.418;2022-07-22T12:26:58;30.80;26.70
22827;DHT22;11580;52.562;13.418;2022-07-22T12:29:29;30.80;26.70
22827;DHT22;11580;52.562;13.418;2022-07-22T12:32:00;30.80;26.70
22827;DHT22;11580;52.562;13.418;2022-07-22T12:34:33;30.70;26.80
22827;DHT22;11580;52.562;13.418;2022-07-22T12:37:12;30.60;26.80
22827;DHT22;11580;52.562;13.418;2022-07-22T12:39:56;30.60;27.00
22827;DHT22;11580;52.562;13.418;2022-07-22T12:42:27;30.50;26.90
22827;DHT22;11580;52.562;13.418;2022-07-22T12:45:00;30.40;26.90
22827;DHT22;11580;52.562;13.418;2022-07-22T12:47:45;30.40;27.00
22827;DHT22;11580;52.562;13.418;2022-07-22T12:50:26;30.30;26.90
22827;DHT22;11580;52.562;13.418;2022-07-22T12:52:56;30.30;27.10
22827;DHT22;11580;52.562;13.418;2022-07-22T12:55:25;30.20;26.90
22827;DHT22;11580;52.562;13.418;2022-07-22T12:57:55;30.10;26.80
22827;DHT22;11580;52.562;13.418;2022-07-22T13:00:24;30.10;27.40
22827;DHT22;11580;52.562;13.418;2022-07-22T13:02:52;29.90;26.60
22827;DHT22;11580;52.562;13.418;2022-07-22T13:05:21;29.80;26.70
22827;DHT22;11580;52.562;13.418;2022-07-22T13:07:50;29.60;26.80
22827;DHT22;11580;52.562;13.418;2022-07-22T13:10:20;29.50;26.80
22827;DHT22;11580;52.562;13.418;2022-07-22T13:12:48;29.30;26.90
22827;DHT22;11580;52.562;13.418;2022-07-22T13:15:18;29.10;27.10
22827;DHT22;11580;52.562;13.418;2022-07-22T13:17:46;29.00;27.30
22827;DHT22;11580;52.562;13.418;2022-07-22T13:20:14;29.00;27.50
22827;DHT22;11580;52.562;13.418;2022-07-22T13:22:43;28.90;27.60
22827;DHT22;11580;52.562;13.418;2022-07-22T13:25:12;28.90;27.60
22827;DHT22;11580;52.562;13.418;2022-07-22T13:27:39;28.90;27.50
22827;DHT22;11580;52.562;13.418;2022-07-22T13:30:08;28.90;27.50
22827;DHT22;11580;52.562;13.418;2022-07-22T13:32:37;28.90;27.60
22827;DHT22;11580;52.562;13.418;2022-07-22T13:35:05;28.90;27.50
22827;DHT22;11580;52.562;13.418;2022-07-22T13:37:34;28.90;27.60
22827;DHT22;11580;52.562;13.418;2022-07-22T13:40:02;28.80;27.40
22827;DHT22;11580;52.562;13.418;2022-07-22T13:42:30;28.80;27.40
22827;DHT22;11580;52.562;13.418;2022-07-22T13:44:57;28.80;27.50
22827;DHT22;11580;52.562;13.418;2022-07-22T13:47:24;28.70;27.50
22827;DHT22;11580;52.562;13.418;2022-07-22T13:49:53;28.70;27.50
22827;DHT22;11580;52.562;13.418;2022-07-22T13:52:21;28.60;27.50
22827;DHT22;11580;52.562;13.418;2022-07-22T13:54:49;28.60;27.40
22827;DHT22;11580;52.562;13.418;2022-07-22T13:57:16;28.60;27.40
22827;DHT22;11580;52.562;13.418;2022-07-22T13:59:44;28.50;27.30
22827;DHT22;11580;52.562;13.418;2022-07-22T14:02:12;28.50;27.40
22827;DHT22;11580;52.562;13.418;2022-07-22T14:04:40;28.50;27.50
22827;DHT22;11580;52.562;13.418;2022-07-22T14:07:09;28.40;27.60
22827;DHT22;11580;52.562;13.418;2022-07-22T14:09:36;28.40;27.80
22827;DHT22;11580;52.562;13.418;2022-07-22T14:12:03;28.40;27.70
22827;DHT22;11580;52.562;13.418;2022-07-22T14:14:31;28.40;27.70
22827;DHT22;11580;52.562;13.418;2022-07-22T14:16:58;28.30;27.50
22827;DHT22;11580;52.562;13.418;2022-07-22T14:19:26;28.40;28.00
22827;DHT22;11580;52.562;13.418;2022-07-22T14:21:53;28.30;27.30
22827;DHT22;11580;52.562;13.418;2022-07-22T14:24:22;28.30;27.40
22827;DHT22;11580;52.562;13.418;2022-07-22T14:26:50;28.20;27.50
22827;DHT22;11580;52.562;13.418;2022-07-22T14:29:17;28.20;27.60
22827;DHT22;11580;52.562;13.418;2022-07-22T14:31:46;28.20;27.70
22827;DHT22;11580;52.562;13.418;2022-07-22T14:34:14;28.20;27.60
22827;DHT22;11580;52.562;13.418;2022-07-22T14:36:41;28.10;27.40
22827;DHT22;11580;52.562;13.418;2022-07-22T14:39:08;28.10;27.40
22827;DHT22;11580;52.562;13.418;2022-07-22T14:41:37;28.10;27.40
22827;DHT22;11580;52.562;13.418;2022-07-22T14:44:04;28.10;27.50
22827;DHT22;11580;52.562;13.418;2022-07-22T14:46:32;28.00;27.50
22827;DHT22;11580;52.562;13.418;2022-07-22T14:48:59;28.00;27.50
22827;DHT22;11580;52.562;13.418;2022-07-22T14:51:27;28.00;27.60
22827;DHT22;11580;52.562;13.418;2022-07-22T14:53:54;28.00;27.50
22827;DHT22;11580;52.562;13.418;2022-07-22T14:56:21;28.00;27.60
22827;DHT22;11580;52.562;13.418;2022-07-22T14:58:50;27.90;27.50
22827;DHT22;11580;52.562;13.418;2022-07-22T15:01:17;27.90;27.60
22827;DHT22;11580;52.562;13.418;2022-07-22T15:03:45;27.80;27.50
22827;DHT22;11580;52.562;13.418;2022-07-22T15:06:12;27.80;27.70
22827;DHT22;11580;52.562;13.418;2022-07-22T15:08:40;27.70;27.70
22827;DHT22;11580;52.562;13.418;2022-07-22T15:11:07;27.70;27.70
22827;DHT22;11580;52.562;13.418;2022-07-22T15:13:34;27.60;27.70
22827;DHT22;11580;52.562;13.418;2022-07-22T15:16:03;27.50;27.80
22827;DHT22;11580;52.562;13.418;2022-07-22T15:18:31;27.50;27.90
22827;DHT22;11580;52.562;13.418;2022-07-22T15:20:59;27.50;27.80
22827;DHT22;11580;52.562;13.418;2022-07-22T15:23:26;27.40;27.70
22827;DHT22;11580;52.562;13.418;2022-07-22T15:25:55;27.40;27.90
22827;DHT22;11580;52.562;13.418;2022-07-22T15:28:22;27.40;27.90
22827;DHT22;11580;52.562;13.418;2022-07-22T15:30:50;27.30;27.90
22827;DHT22;11580;52.562;13.418;2022-07-22T15:33:19;27.30;28.50
22827;DHT22;11580;52.562;13.418;2022-07-22T15:35:47;27.30;28.00
22827;DHT22;11580;52.562;13.418;2022-07-22T15:38:14;27.30;27.90